Terminal Aerodrome Forecast
Issued by NWS

Home | Current Version | Previous Version | Graphics & Text | Print | Product List | Glossary On
Versions: 1 2 3 4 5 6 7 8 9 10 11 12 13 14 15 16 17 18 19
703
FTUS43 KABR 262321
TAFPIR
TAF
KPIR 262321Z 2700/2724 11010KT P6SM FEW040 BKN100
     FM270600 14006KT P6SM SCT200
     FM271100 17004KT P6SM BKN100
     FM272000 21008KT P6SM FEW250=

USA.gov is the U.S. government's official web portal to all federal, state and local government web resources and services.